Time;durP1;ratioP1;P1;durP2;ratioP2;P2;SDS_P1;SDS_P2;PMS_P1;PMS_P2;Temp;Humidity;BMP_temperature;BMP_pressure;BME280_temperature;BME280_humidity;BME280_pressure;Samples;Min_cycle;Max_cycle;Signal;HPM_P1;HPM_P2
2022/05/17 00:00:25;;;;;;;10.10;5.00;;;16.10;1.00;;;;;;4991109;28;20393;-61
2022/05/17 00:02:51;;;;;;;9.30;4.97;;;16.00;1.00;;;;;;4989406;28;20426;-61
2022/05/17 00:05:16;;;;;;;9.45;5.18;;;16.00;1.00;;;;;;4989984;28;20449;-61
2022/05/17 00:07:42;;;;;;;8.83;5.00;;;16.00;1.00;;;;;;4989212;28;20394;-60
2022/05/17 00:10:08;;;;;;;8.80;5.20;;;16.20;1.00;;;;;;4990884;28;20410;-60
2022/05/17 00:12:35;;;;;;;9.13;5.43;;;16.00;1.00;;;;;;4995904;28;20411;-60
2022/05/17 00:15:01;;;;;;;12.63;5.10;;;15.90;1.00;;;;;;4991678;28;20432;-60
2022/05/17 00:17:26;;;;;;;9.97;4.77;;;16.10;1.00;;;;;;4990000;28;20387;-60
2022/05/17 00:19:52;;;;;;;11.20;4.80;;;15.90;1.00;;;;;;4989385;28;20544;-60
2022/05/17 00:22:18;;;;;;;8.23;4.80;;;15.90;1.00;;;;;;4990619;28;20405;-60
2022/05/17 00:24:44;;;;;;;12.45;5.13;;;15.90;1.00;;;;;;4988928;28;20387;-60
2022/05/17 00:27:10;;;;;;;9.87;5.00;;;15.80;1.00;;;;;;4992348;28;20402;-60
2022/05/17 00:29:36;;;;;;;11.68;5.45;;;15.90;1.00;;;;;;4990160;28;20433;-60
2022/05/17 00:32:03;;;;;;;10.73;5.30;;;15.70;1.00;;;;;;4994769;28;20383;-60
2022/05/17 00:34:28;;;;;;;11.30;5.80;;;15.80;1.00;;;;;;4989393;28;20422;-61
2022/05/17 00:36:54;;;;;;;10.32;5.03;;;15.80;1.00;;;;;;4990024;28;20406;-59
2022/05/17 00:39:20;;;;;;;10.83;5.30;;;15.80;1.00;;;;;;4992063;28;20399;-61
2022/05/17 00:41:46;;;;;;;12.05;5.22;;;15.80;1.00;;;;;;4992154;28;20784;-61
2022/05/17 00:46:59;;;;;;;13.10;5.40;;;15.80;1.00;;;;;;4991219;28;20898;-61
2022/05/17 00:49:35;;;;;;;11.90;5.00;;;15.70;1.00;;;;;;4989697;28;20394;-60
2022/05/17 00:52:07;;;;;;;11.57;5.07;;;15.70;1.00;;;;;;4985953;28;20386;-60
2022/05/17 00:54:33;;;;;;;9.40;5.05;;;15.70;1.00;;;;;;4989924;28;20433;-60
2022/05/17 00:57:09;;;;;;;9.95;5.07;;;15.70;1.00;;;;;;4989547;28;21118;-61
2022/05/17 00:59:37;;;;;;;10.93;5.40;;;15.60;1.00;;;;;;4994958;28;20398;-60
2022/05/17 01:02:07;;;;;;;9.25;5.13;;;15.60;1.00;;;;;;4992843;28;20403;-60
2022/05/17 01:04:33;;;;;;;11.90;5.10;;;15.50;1.00;;;;;;4992974;28;20432;-60
2022/05/17 01:07:04;;;;;;;10.10;5.40;;;15.50;1.00;;;;;;4995775;28;20390;-58
2022/05/17 01:09:30;;;;;;;9.60;5.20;;;15.40;1.00;;;;;;4998418;28;20891;-60
2022/05/17 01:11:55;;;;;;;9.65;5.00;;;15.40;1.00;;;;;;4996179;28;20417;-60
2022/05/17 01:17:06;;;;;;;11.00;5.80;;;15.30;1.00;;;;;;4991278;28;21047;-60
2022/05/17 01:19:32;;;;;;;9.73;5.40;;;15.40;1.00;;;;;;4992751;28;20756;-60
2022/05/17 01:21:58;;;;;;;10.00;5.40;;;15.30;1.00;;;;;;4992812;28;20490;-59
2022/05/17 01:24:25;;;;;;;8.90;5.00;;;15.20;1.00;;;;;;4994732;28;20913;-61
2022/05/17 01:26:56;;;;;;;10.27;4.85;;;15.20;1.00;;;;;;4992541;28;20395;-60
2022/05/17 01:29:22;;;;;;;9.55;5.00;;;15.20;1.00;;;;;;4993118;28;20386;-60
2022/05/17 01:31:48;;;;;;;9.27;5.27;;;15.20;1.00;;;;;;4992690;28;20888;-60
2022/05/17 01:34:14;;;;;;;11.10;5.00;;;15.30;1.00;;;;;;4995748;28;20414;-61
2022/05/17 01:36:41;;;;;;;10.35;5.00;;;15.30;1.00;;;;;;4992216;28;20406;-56
2022/05/17 01:39:08;;;;;;;9.40;5.05;;;15.40;1.00;;;;;;4999499;28;20414;-60
2022/05/17 01:41:34;;;;;;;10.35;5.18;;;15.30;1.00;;;;;;4992717;28;20466;-60
2022/05/17 01:44:00;;;;;;;13.43;5.50;;;15.30;1.00;;;;;;4991842;28;20383;-60
2022/05/17 01:46:26;;;;;;;9.40;5.10;;;15.40;1.00;;;;;;4994001;28;20886;-60
2022/05/17 01:48:52;;;;;;;9.48;5.20;;;15.40;1.00;;;;;;4994167;28;20489;-60
2022/05/17 01:51:19;;;;;;;9.57;5.30;;;15.40;1.00;;;;;;4992289;28;20489;-57
2022/05/17 01:53:45;;;;;;;11.13;5.60;;;15.40;1.00;;;;;;4990410;28;20422;-58
2022/05/17 01:56:10;;;;;;;12.80;6.17;;;15.30;1.00;;;;;;4994775;28;20393;-58
2022/05/17 01:58:37;;;;;;;15.15;6.05;;;15.30;1.00;;;;;;4992284;28;20401;-59
2022/05/17 02:01:05;;;;;;;11.68;5.70;;;15.30;1.00;;;;;;4991945;28;20441;-59
2022/05/17 02:03:31;;;;;;;11.15;5.30;;;15.30;1.00;;;;;;4992332;28;20402;-59
2022/05/17 02:05:56;;;;;;;10.40;5.80;;;15.30;1.00;;;;;;4991103;28;20502;-59
2022/05/17 02:08:22;;;;;;;11.88;6.30;;;15.30;1.00;;;;;;4981720;28;20421;-60
2022/05/17 02:10:48;;;;;;;11.70;6.30;;;15.20;1.00;;;;;;4992157;28;20457;-60
2022/05/17 02:13:13;;;;;;;11.67;5.60;;;15.10;1.00;;;;;;4991931;28;20473;-60
2022/05/17 02:15:39;;;;;;;9.77;5.80;;;14.90;1.00;;;;;;4991955;28;20407;-56
2022/05/17 02:18:05;;;;;;;11.47;6.47;;;14.90;1.00;;;;;;4991381;28;20418;-59
2022/05/17 02:20:31;;;;;;;11.68;6.22;;;14.80;1.00;;;;;;4991984;28;20744;-60
2022/05/17 02:23:00;;;;;;;10.17;6.10;;;14.80;1.00;;;;;;4991275;28;20399;-60
2022/05/17 02:25:26;;;;;;;13.65;6.85;;;14.80;1.00;;;;;;4993460;28;20410;-60
2022/05/17 02:27:51;;;;;;;10.85;6.40;;;14.70;1.00;;;;;;4995885;28;20397;-60
2022/05/17 02:30:17;;;;;;;11.20;6.27;;;14.60;1.00;;;;;;4992161;28;20394;-59
2022/05/17 02:32:43;;;;;;;10.60;6.22;;;14.50;1.00;;;;;;4991103;28;20452;-59
2022/05/17 02:35:12;;;;;;;13.43;6.70;;;14.50;1.00;;;;;;4992109;28;20493;-60
2022/05/17 02:37:38;;;;;;;11.20;6.93;;;14.50;1.00;;;;;;4991329;28;20930;-57
2022/05/17 02:40:05;;;;;;;13.90;6.70;;;14.60;1.00;;;;;;4992670;28;20395;-60
2022/05/17 02:42:30;;;;;;;12.65;6.35;;;14.50;1.00;;;;;;4991851;28;20493;-60
2022/05/17 02:44:56;;;;;;;12.40;6.63;;;14.50;1.00;;;;;;4992392;28;20405;-59
2022/05/17 02:47:22;;;;;;;13.80;7.40;;;14.40;1.00;;;;;;4992140;28;20386;-59
2022/05/17 02:49:47;;;;;;;11.95;6.53;;;14.30;1.00;;;;;;4994441;28;20708;-60
2022/05/17 02:52:13;;;;;;;11.07;6.83;;;14.40;1.00;;;;;;4992872;28;20466;-60
2022/05/17 02:54:40;;;;;;;12.05;6.50;;;14.30;1.00;;;;;;4991248;28;20450;-56
2022/05/17 02:57:06;;;;;;;12.93;6.90;;;14.40;1.00;;;;;;4991505;28;20403;-60
2022/05/17 02:59:32;;;;;;;11.30;7.40;;;14.40;1.00;;;;;;4991202;28;20397;-60
2022/05/17 03:01:59;;;;;;;11.23;6.63;;;14.40;1.00;;;;;;4992258;28;21195;-60
2022/05/17 03:04:26;;;;;;;10.70;6.57;;;14.40;1.00;;;;;;4994644;28;20405;-60
2022/05/17 03:06:52;;;;;;;13.63;7.30;;;14.40;1.00;;;;;;4990707;28;20387;-58
2022/05/17 03:09:18;;;;;;;10.32;6.45;;;14.30;1.00;;;;;;4994315;28;20868;-60
2022/05/17 03:11:43;;;;;;;13.70;6.70;;;14.40;1.00;;;;;;4995355;28;20405;-60
2022/05/17 03:14:11;;;;;;;12.13;6.22;;;14.30;1.00;;;;;;4990698;28;20495;-60
2022/05/17 03:16:36;;;;;;;13.25;6.43;;;14.30;1.00;;;;;;4992518;28;20402;-60
2022/05/17 03:19:03;;;;;;;11.35;6.43;;;14.30;1.00;;;;;;4990157;28;20445;-60
2022/05/17 03:21:29;;;;;;;10.90;6.85;;;14.20;1.00;;;;;;4990688;28;20386;-59
2022/05/17 03:23:54;;;;;;;12.77;7.97;;;14.10;2.80;;;;;;4989883;28;20402;-60
2022/05/17 03:26:20;;;;;;;12.13;7.53;;;14.00;17.80;;;;;;4991033;28;20430;-60
2022/05/17 03:28:46;;;;;;;14.00;8.38;;;14.10;13.00;;;;;;4990119;28;20402;-60
2022/05/17 03:31:12;;;;;;;14.23;7.90;;;14.10;14.30;;;;;;4993698;28;20465;-61
2022/05/17 03:33:39;;;;;;;18.10;9.07;;;14.10;13.70;;;;;;4986811;28;20424;-60
2022/05/17 03:36:06;;;;;;;13.43;8.00;;;14.10;18.70;;;;;;4990813;28;20387;-60
2022/05/17 03:38:33;;;;;;;11.43;7.25;;;14.10;13.20;;;;;;4990979;28;20510;-60
2022/05/17 03:40:58;;;;;;;12.65;7.78;;;14.10;8.20;;;;;;4992756;28;20403;-60
2022/05/17 03:43:28;;;;;;;15.32;7.25;;;14.10;4.00;;;;;;4990530;28;20382;-60
2022/05/17 03:45:55;;;;;;;13.20;8.18;;;14.10;2.60;;;;;;4991729;28;20481;-60
2022/05/17 03:48:22;;;;;;;16.80;8.07;;;14.10;1.00;;;;;;4995157;28;20392;-60
2022/05/17 03:50:48;;;;;;;14.75;8.60;;;14.10;1.00;;;;;;4989201;28;20412;-60
2022/05/17 03:53:14;;;;;;;10.83;7.30;;;14.00;1.70;;;;;;4990554;28;20728;-60
2022/05/17 03:55:39;;;;;;;13.75;7.50;;;14.00;8.60;;;;;;4994785;28;20410;-60
2022/05/17 03:58:05;;;;;;;12.55;7.60;;;14.00;16.40;;;;;;4993366;28;20461;-59
2022/05/17 04:00:31;;;;;;;14.07;7.80;;;14.00;13.00;;;;;;4985704;28;20401;-60
2022/05/17 04:02:57;;;;;;;13.10;7.70;;;14.00;8.90;;;;;;4988872;28;20398;-60
2022/05/17 04:05:22;;;;;;;11.67;7.40;;;14.10;6.10;;;;;;4994966;28;20398;-60
2022/05/17 04:07:48;;;;;;;15.38;8.10;;;14.10;1.00;;;;;;4987881;28;20760;-59
2022/05/17 04:10:34;;;;;;;12.60;8.20;;;14.20;1.00;;;;;;4997748;28;20435;-60
2022/05/17 04:13:29;;;;;;;13.60;7.80;;;14.20;3.20;;;;;;4989315;28;20422;-59
2022/05/17 04:16:01;;;;;;;13.02;8.65;;;14.20;18.90;;;;;;4979202;28;20577;-60
2022/05/17 04:18:43;;;;;;;13.00;7.88;;;14.30;18.90;;;;;;4986366;28;20409;-60
2022/05/17 04:21:20;;;;;;;14.70;8.50;;;14.40;23.60;;;;;;4985779;28;21071;-60
2022/05/17 04:23:45;;;;;;;10.65;7.22;;;14.50;10.20;;;;;;4976954;28;20813;-59
2022/05/17 04:26:13;;;;;;;13.17;7.20;;;14.60;5.40;;;;;;4982003;28;20398;-60
2022/05/17 04:28:38;;;;;;;11.82;7.20;;;14.50;19.50;;;;;;4991000;28;20390;-60
2022/05/17 04:31:05;;;;;;;13.33;7.93;;;14.50;26.60;;;;;;5000906;28;20849;-59
2022/05/17 04:33:30;;;;;;;13.48;7.50;;;14.60;19.10;;;;;;4993621;28;20417;-60
2022/05/17 04:35:56;;;;;;;12.90;7.95;;;14.90;13.40;;;;;;5007224;28;20389;-59
2022/05/17 04:38:22;;;;;;;13.53;8.23;;;15.00;1.00;;;;;;4981172;28;20533;-59
2022/05/17 04:40:48;;;;;;;14.13;7.82;;;15.20;1.00;;;;;;4991523;28;20832;-57
2022/05/17 04:43:14;;;;;;;13.37;8.10;;;;;;;;;;4992844;28;20407;-59
2022/05/17 04:45:41;;;;;;;13.32;7.40;;;;;;;;;;4998109;28;20422;-59
2022/05/17 04:48:07;;;;;;;12.60;7.40;;;15.50;1.00;;;;;;4998606;28;20378;-60
2022/05/17 04:50:34;;;;;;;13.48;7.70;;;15.60;1.00;;;;;;4984090;28;20419;-58
2022/05/17 04:52:59;;;;;;;14.52;8.13;;;15.70;1.00;;;;;;4982978;28;20507;-59
2022/05/17 04:55:26;;;;;;;13.43;7.90;;;15.80;1.00;;;;;;4990058;28;20521;-60
2022/05/17 04:57:51;;;;;;;15.00;7.70;;;15.90;1.00;;;;;;4988118;28;20407;-59
2022/05/17 05:00:20;;;;;;;11.85;6.60;;;16.50;1.00;;;;;;4986620;28;20429;-59
2022/05/17 05:02:46;;;;;;;12.15;5.90;;;17.70;99.90;;;;;;4985587;28;20927;-59
2022/05/17 05:05:12;;;;;;;14.37;6.63;;;19.00;1.00;;;;;;4992297;28;20484;-60
2022/05/17 05:07:37;;;;;;;12.00;6.35;;;20.40;94.10;;;;;;5003375;28;20780;-60
2022/05/17 05:10:03;;;;;;;12.20;6.20;;;21.40;1.00;;;;;;4992423;28;20448;-60
2022/05/17 05:12:30;;;;;;;12.10;6.65;;;21.90;99.90;;;;;;4977198;28;20862;-60
2022/05/17 05:14:57;;;;;;;12.57;6.50;;;22.70;99.90;;;;;;4989059;28;20425;-59
2022/05/17 05:17:22;;;;;;;11.95;6.38;;;23.60;99.90;;;;;;4990522;28;20430;-59
2022/05/17 05:19:48;;;;;;;11.07;6.30;;;23.90;99.90;;;;;;4995873;28;20417;-59
2022/05/17 05:22:14;;;;;;;11.45;6.05;;;24.00;99.90;;;;;;4990979;28;20876;-59
2022/05/17 05:24:39;;;;;;;13.03;6.40;;;24.80;1.00;;;;;;4992656;28;20525;-59
2022/05/17 05:27:05;;;;;;;13.35;6.35;;;25.10;1.00;;;;;;4990518;28;20851;-58
2022/05/17 05:29:31;;;;;;;14.07;7.30;;;25.10;1.00;;;;;;5008901;28;20921;-58
2022/05/17 05:31:56;;;;;;;11.60;7.40;;;25.40;1.00;;;;;;5001835;28;20389;-59
2022/05/17 05:34:22;;;;;;;10.93;7.27;;;25.90;1.00;;;;;;5002387;28;20421;-62
2022/05/17 05:36:48;;;;;;;11.80;7.80;;;26.40;9.30;;;;;;4988646;28;20437;-62
2022/05/17 05:39:15;;;;;;;13.10;7.13;;;27.20;27.50;;;;;;5007734;28;20429;-60
2022/05/17 05:41:41;;;;;;;10.85;8.15;;;27.60;21.80;;;;;;4993611;28;20815;-60
2022/05/17 05:44:06;;;;;;;11.75;6.32;;;28.10;1.00;;;;;;4994022;28;20401;-60
2022/05/17 05:46:32;;;;;;;12.43;7.00;;;28.40;1.00;;;;;;4999386;28;20402;-59
2022/05/17 05:48:58;;;;;;;12.02;6.68;;;28.40;1.00;;;;;;4996810;28;20461;-59
2022/05/17 05:51:24;;;;;;;11.00;6.93;;;29.20;1.00;;;;;;5002704;28;20400;-60
2022/05/17 05:53:51;;;;;;;10.18;6.10;;;29.70;1.00;;;;;;5002628;28;20590;-60
2022/05/17 05:56:16;;;;;;;12.75;6.90;;;30.50;1.00;;;;;;5011024;28;20487;-62
2022/05/17 05:58:45;;;;;;;10.77;6.60;;;29.70;1.00;;;;;;4999161;28;20484;-56
2022/05/17 06:01:12;;;;;;;11.20;6.20;;;29.60;1.00;;;;;;4987090;28;20402;-59
2022/05/17 06:03:38;;;;;;;11.57;6.00;;;29.90;1.00;;;;;;4989707;28;20401;-59
2022/05/17 06:06:08;;;;;;;10.02;5.93;;;29.50;1.00;;;;;;4977441;28;20416;-60
2022/05/17 06:08:34;;;;;;;12.13;6.03;;;28.70;1.00;;;;;;4993930;28;20406;-60
2022/05/17 06:11:01;;;;;;;13.07;8.33;;;28.40;1.00;;;;;;4988512;28;20407;-60
2022/05/17 06:13:27;;;;;;;13.25;8.50;;;28.20;1.00;;;;;;4990878;28;20449;-60
2022/05/17 06:15:53;;;;;;;11.93;8.80;;;28.60;1.00;;;;;;5000791;28;20401;-60
2022/05/17 06:18:20;;;;;;;10.47;5.70;;;28.90;1.00;;;;;;5004750;28;20885;-60
2022/05/17 06:20:55;;;;;;;13.13;6.45;;;29.00;1.00;;;;;;5002403;28;20463;-56
2022/05/17 06:23:23;;;;;;;11.18;6.57;;;29.10;1.00;;;;;;5011389;28;20471;-60
2022/05/17 06:25:49;;;;;;;12.20;5.90;;;30.10;1.00;;;;;;4993443;28;20879;-60
2022/05/17 06:28:15;;;;;;;10.10;5.75;;;30.00;1.00;;;;;;4995470;28;20389;-60
2022/05/17 06:30:43;;;;;;;11.05;5.85;;;30.10;1.00;;;;;;5006048;28;20400;-59
2022/05/17 06:33:10;;;;;;;11.20;5.20;;;30.20;1.00;;;;;;4993051;28;20501;-60
2022/05/17 06:35:38;;;;;;;11.60;6.07;;;30.10;1.00;;;;;;4999207;28;20431;-60
2022/05/17 06:38:04;;;;;;;15.98;7.90;;;30.00;1.00;;;;;;5006232;28;20385;-60
2022/05/17 06:40:31;;;;;;;11.20;6.32;;;29.80;1.00;;;;;;4991004;28;20811;-60
2022/05/17 06:42:57;;;;;;;12.57;6.55;;;29.70;1.00;;;;;;5000697;28;20397;-60
2022/05/17 06:45:22;;;;;;;12.07;6.60;;;29.70;1.00;;;;;;5008155;28;20410;-60
2022/05/17 06:47:48;;;;;;;11.45;6.07;;;30.20;1.00;;;;;;5006153;28;20389;-60
2022/05/17 06:50:14;;;;;;;10.57;5.67;;;30.60;1.00;;;;;;5000295;28;20410;-60
2022/05/17 06:52:39;;;;;;;11.73;5.63;;;30.30;1.00;;;;;;5002794;28;20462;-60
2022/05/17 06:55:06;;;;;;;11.73;5.57;;;30.20;1.00;;;;;;4990891;28;20466;-60
2022/05/17 06:57:33;;;;;;;13.17;6.20;;;30.60;1.00;;;;;;4991122;28;20398;-60
2022/05/17 06:59:58;;;;;;;12.25;7.20;;;30.50;1.00;;;;;;4991889;28;20430;-60
2022/05/17 07:02:24;;;;;;;13.35;7.38;;;30.20;1.00;;;;;;5010556;28;20416;-59
2022/05/17 07:04:50;;;;;;;13.00;6.82;;;29.80;1.00;;;;;;4993813;28;20487;-60
2022/05/17 07:07:22;;;;;;;16.10;7.03;;;30.20;1.00;;;;;;4997899;28;20389;-60
2022/05/17 07:13:07;;;;;;;11.48;6.43;;;30.60;1.00;;;;;;5004646;28;20420;-60
2022/05/17 07:15:18;;;;;;;12.02;6.80;;;30.30;1.00;;;;;;4995578;28;20557;-60
2022/05/17 07:17:57;;;;;;;11.60;7.10;;;30.80;1.00;;;;;;4990828;28;20423;-56
2022/05/17 07:20:22;;;;;;;13.30;7.10;;;30.80;1.00;;;;;;4996760;28;20397;-60
2022/05/17 07:22:48;;;;;;;11.30;7.60;;;;;;;;;;5001565;28;20773;-60
2022/05/17 07:25:14;;;;;;;12.88;8.38;;;31.80;1.00;;;;;;5005224;28;20409;-60
2022/05/17 07:27:40;;;;;;;12.80;8.52;;;31.50;1.00;;;;;;4998098;28;20387;-60
2022/05/17 07:30:06;;;;;;;14.07;7.50;;;31.40;1.00;;;;;;4992849;28;20389;-60
2022/05/17 07:32:32;;;;;;;12.55;7.32;;;31.50;1.00;;;;;;4997100;28;20379;-60
2022/05/17 07:34:58;;;;;;;11.33;5.50;;;32.00;1.00;;;;;;4997298;28;20911;-60
2022/05/17 07:37:23;;;;;;;11.40;6.30;;;32.90;1.00;;;;;;4992005;28;20468;-60
2022/05/17 07:39:49;;;;;;;11.32;6.30;;;33.20;1.00;;;;;;4990297;28;20387;-62
2022/05/17 07:42:15;;;;;;;11.33;6.60;;;33.60;99.90;;;;;;4991448;28;20445;-61
2022/05/17 07:44:41;;;;;;;12.80;5.90;;;34.20;99.90;;;;;;4990749;28;20398;-61
2022/05/17 07:47:09;;;;;;;11.80;5.67;;;34.50;99.90;;;;;;4989991;28;20391;-61
2022/05/17 07:49:38;;;;;;;10.75;5.50;;;34.10;99.90;;;;;;5001037;28;20389;-61
2022/05/17 07:52:06;;;;;;;12.80;5.68;;;34.00;99.90;;;;;;5008552;28;20520;-61
2022/05/17 07:54:32;;;;;;;11.40;6.10;;;32.60;99.90;;;;;;4999387;28;20418;-61
2022/05/17 07:56:58;;;;;;;10.70;5.40;;;31.90;99.90;;;;;;4996422;28;20876;-61
2022/05/17 07:59:24;;;;;;;12.73;5.80;;;32.30;99.90;;;;;;4990193;28;20382;-61
2022/05/17 08:01:49;;;;;;;10.77;6.68;;;32.60;99.90;;;;;;4992108;28;20394;-60
2022/05/17 08:04:15;;;;;;;10.82;7.30;;;32.80;99.90;;;;;;4990400;28;20773;-61
2022/05/17 08:06:41;;;;;;;12.97;8.10;;;33.50;99.90;;;;;;4990235;28;20887;-61
2022/05/17 08:09:06;;;;;;;10.40;5.50;;;33.60;99.90;;;;;;4988371;28;20405;-61
2022/05/17 08:11:35;;;;;;;10.40;5.70;;;33.50;99.90;;;;;;4990437;28;20899;-61
2022/05/17 08:14:00;;;;;;;12.02;6.40;;;33.30;99.90;;;;;;4989496;28;20557;-61
2022/05/17 08:16:29;;;;;;;11.38;7.80;;;32.90;99.90;;;;;;4990321;28;20481;-61
2022/05/17 08:18:58;;;;;;;11.50;7.00;;;33.20;99.90;;;;;;4989442;28;20382;-61
2022/05/17 08:21:23;;;;;;;11.85;6.63;;;33.30;99.90;;;;;;4990079;28;20883;-62
2022/05/17 08:23:49;;;;;;;11.38;8.35;;;32.10;99.90;;;;;;4996927;28;20388;-61
2022/05/17 08:28:58;;;;;;;10.15;6.72;;;29.80;99.90;;;;;;5007824;28;20956;-62
2022/05/17 08:31:24;;;;;;;11.90;7.10;;;30.30;99.90;;;;;;5009031;28;20420;-62
2022/05/17 08:33:50;;;;;;;10.20;6.10;;;31.90;99.90;;;;;;5008107;28;20412;-64
2022/05/17 08:36:17;;;;;;;11.05;5.30;;;33.30;99.90;;;;;;5008420;28;20390;-62
2022/05/17 08:38:46;;;;;;;11.07;5.50;;;33.20;99.90;;;;;;5008054;28;20399;-62
2022/05/17 08:41:38;;;;;;;16.38;5.70;;;32.80;99.90;;;;;;5008820;28;20886;-62
2022/05/17 08:44:20;;;;;;;10.52;5.15;;;33.80;99.90;;;;;;5008220;28;20393;-62
2022/05/17 08:46:48;;;;;;;9.83;5.03;;;35.00;99.90;;;;;;4985196;28;20386;-59
2022/05/17 08:49:43;;;;;;;9.05;4.43;;;34.30;99.90;;;;;;4989564;28;20391;-62
2022/05/17 08:52:11;;;;;;;10.57;4.90;;;34.20;99.90;;;;;;4986294;28;20426;-62
2022/05/17 08:54:39;;;;;;;9.75;6.10;;;33.20;99.90;;;;;;4989761;28;20414;-62
2022/05/17 08:57:23;;;;;;;8.98;4.53;;;32.70;99.90;;;;;;4989211;28;20390;-62
2022/05/17 08:59:49;;;;;;;10.65;4.75;;;32.90;99.90;;;;;;4989446;28;20619;-58
2022/05/17 09:02:26;;;;;;;9.73;5.70;;;33.60;99.90;;;;;;4989789;28;20417;-62
2022/05/17 09:05:15;;;;;;;8.77;6.10;;;33.10;99.90;;;;;;4989276;28;20384;-62
2022/05/17 09:07:48;;;;;;;9.87;6.33;;;32.80;99.90;;;;;;4989460;28;20439;-62
2022/05/17 09:10:56;;;;;;;12.23;7.93;;;30.70;99.90;;;;;;4989352;28;20410;-62
2022/05/17 09:13:47;;;;;;;10.13;4.75;;;30.30;99.90;;;;;;4967759;28;20744;-62
2022/05/17 09:16:14;;;;;;;9.63;4.37;;;30.80;99.90;;;;;;4984135;28;20394;-62
2022/05/17 09:18:43;;;;;;;8.70;3.90;;;30.70;99.90;;;;;;4993733;28;20386;-62
2022/05/17 09:21:30;;;;;;;9.02;4.07;;;31.10;99.90;;;;;;4992621;28;20390;-62
2022/05/17 09:24:04;;;;;;;9.10;3.80;;;31.60;99.90;;;;;;4992368;28;20394;-62
2022/05/17 09:26:30;;;;;;;8.05;4.05;;;31.60;99.90;;;;;;4993433;28;20386;-62
2022/05/17 09:29:03;;;;;;;7.90;3.70;;;31.30;99.90;;;;;;4992584;28;20395;-62
2022/05/17 09:31:35;;;;;;;9.55;4.30;;;30.90;99.90;;;;;;4993621;28;20391;-62
2022/05/17 09:34:06;;;;;;;8.48;3.90;;;30.40;99.90;;;;;;4992935;28;20495;-62
2022/05/17 09:36:52;;;;;;;9.00;3.90;;;29.90;99.90;;;;;;4993144;28;20402;-62
2022/05/17 09:39:23;;;;;;;8.43;4.30;;;29.60;99.90;;;;;;4992830;28;20401;-62
2022/05/17 09:41:50;;;;;;;7.80;3.10;;;29.60;99.90;;;;;;4993025;28;20401;-58
2022/05/17 09:44:22;;;;;;;8.50;3.60;;;30.20;99.90;;;;;;4993212;28;20395;-62
2022/05/17 09:46:50;;;;;;;8.87;3.80;;;30.40;99.90;;;;;;4992738;28;20386;-57
2022/05/17 09:52:38;;;;;;;10.75;4.35;;;30.20;99.90;;;;;;5011025;28;20479;-62
2022/05/17 09:55:27;;;;;;;10.45;3.90;;;30.60;99.90;;;;;;5010522;28;20412;-63
2022/05/17 09:58:09;;;;;;;9.80;3.97;;;31.30;99.90;;;;;;5010956;28;20472;-62
2022/05/17 10:00:43;;;;;;;9.20;3.80;;;30.70;99.90;;;;;;5011343;28;20562;-63
2022/05/17 10:03:15;;;;;;;9.40;3.92;;;31.20;99.90;;;;;;5010637;28;20413;-63
2022/05/17 10:05:40;;;;;;;9.63;4.40;;;31.70;99.90;;;;;;5011678;28;20392;-63
2022/05/17 10:08:12;;;;;;;11.73;4.60;;;31.60;99.90;;;;;;5010582;28;20407;-62
2022/05/17 10:10:46;;;;;;;9.60;4.50;;;31.30;99.90;;;;;;5011079;28;20436;-62
2022/05/17 10:13:26;;;;;;;10.68;4.47;;;30.60;99.90;;;;;;5001321;28;20391;-63
2022/05/17 10:16:00;;;;;;;9.00;4.32;;;30.00;99.90;;;;;;4991499;28;20793;-62
2022/05/17 10:18:42;;;;;;;9.73;4.13;;;29.80;99.90;;;;;;4992731;28;20386;-62
2022/05/17 10:21:30;;;;;;;9.57;3.60;;;30.30;99.90;;;;;;4999901;28;20393;-63
2022/05/17 10:24:25;;;;;;;8.68;4.25;;;30.50;99.90;;;;;;5010526;28;20396;-63
2022/05/17 10:27:05;;;;;;;12.13;4.28;;;30.80;99.90;;;;;;5010349;28;20401;-62
2022/05/17 10:29:34;;;;;;;11.95;4.10;;;31.40;99.90;;;;;;5011114;28;20381;-61
2022/05/17 10:32:26;;;;;;;8.63;4.00;;;31.80;99.90;;;;;;5009879;28;20464;-63
2022/05/17 10:35:16;;;;;;;9.80;3.75;;;32.20;99.90;;;;;;5010250;28;20822;-63
2022/05/17 10:38:17;;;;;;;8.60;3.80;;;32.40;99.90;;;;;;5010926;28;20416;-62
2022/05/17 10:40:46;;;;;;;9.85;4.63;;;32.00;99.90;;;;;;4972895;28;20405;-61
2022/05/17 10:43:25;;;;;;;9.40;4.30;;;31.40;99.90;;;;;;5010416;28;20477;-62
2022/05/17 10:46:04;;;;;;;9.60;4.50;;;30.10;99.90;;;;;;4987069;28;20441;-58
2022/05/17 10:48:54;;;;;;;9.90;4.43;;;30.20;99.90;;;;;;4992281;28;20856;-62
2022/05/17 10:51:44;;;;;;;9.73;4.47;;;30.00;99.90;;;;;;4992248;28;20387;-62
2022/05/17 10:54:43;;;;;;;8.27;4.10;;;29.80;99.90;;;;;;4990963;28;20481;-62
2022/05/17 10:57:26;;;;;;;11.00;5.33;;;29.00;99.90;;;;;;4973767;28;20966;-61
2022/05/17 11:00:09;;;;;;;10.30;6.55;;;27.80;99.90;;;;;;4987153;28;20417;-61
2022/05/17 11:02:57;;;;;;;11.07;6.70;;;27.30;99.90;;;;;;4976227;28;20461;-62
2022/05/17 11:05:47;;;;;;;10.70;7.18;;;27.90;99.90;;;;;;4991418;28;20511;-62
2022/05/17 11:08:19;;;;;;;10.00;6.55;;;28.50;99.90;;;;;;4993665;28;20404;-61
2022/05/17 11:10:51;;;;;;;9.90;5.20;;;28.60;99.90;;;;;;5010031;28;20413;-62
2022/05/17 11:13:33;;;;;;;8.73;5.70;;;29.00;99.90;;;;;;5010328;28;20392;-62
2022/05/17 11:16:08;;;;;;;9.85;6.10;;;28.90;99.90;;;;;;4993688;28;21008;-62
2022/05/17 11:18:45;;;;;;;8.70;6.00;;;28.60;99.90;;;;;;5000326;28;20375;-63
2022/05/17 11:21:24;;;;;;;9.48;5.55;;;29.00;99.90;;;;;;4990535;28;20722;-62
2022/05/17 11:23:55;;;;;;;8.80;6.37;;;29.30;99.90;;;;;;4987726;28;20404;-58
2022/05/17 11:26:55;;;;;;;7.63;4.68;;;29.60;99.90;;;;;;4989976;28;20379;-64
2022/05/17 11:29:55;;;;;;;7.82;5.32;;;30.20;99.90;;;;;;4990999;28;20390;-61
2022/05/17 11:32:30;;;;;;;7.88;5.60;;;29.80;99.90;;;;;;4993481;28;20487;-64
2022/05/17 11:34:59;;;;;;;8.77;5.53;;;29.90;99.90;;;;;;4991476;28;20436;-62
2022/05/17 11:37:34;;;;;;;7.78;5.10;;;29.20;99.90;;;;;;4993309;28;20395;-62
2022/05/17 11:40:04;;;;;;;8.18;5.07;;;29.20;99.90;;;;;;4989887;28;20402;-64
2022/05/17 11:45:50;;;;;;;9.50;5.18;;;29.50;99.90;;;;;;4990592;28;20417;-63
2022/05/17 11:48:18;;;;;;;8.80;5.00;;;29.60;99.90;;;;;;4990895;28;20383;-63
2022/05/17 11:50:57;;;;;;;7.00;5.25;;;28.90;99.90;;;;;;4982759;28;20406;-64
2022/05/17 11:53:33;;;;;;;7.85;4.10;;;28.50;99.90;;;;;;4991951;28;20479;-64
2022/05/17 11:56:11;;;;;;;7.50;5.07;;;28.50;99.90;;;;;;4988950;28;20495;-63
2022/05/17 11:58:37;;;;;;;7.65;5.50;;;28.60;99.90;;;;;;4988610;28;20565;-61
2022/05/17 12:01:03;;;;;;;10.13;5.90;;;28.90;99.90;;;;;;4974256;28;20414;-61
2022/05/17 12:03:54;;;;;;;7.95;4.63;;;29.00;99.90;;;;;;4990909;28;20383;-62
2022/05/17 12:06:48;;;;;;;8.73;5.80;;;29.20;99.90;;;;;;4986848;28;20421;-62
2022/05/17 12:09:22;;;;;;;8.63;5.90;;;29.20;99.90;;;;;;4989546;28;20429;-62
2022/05/17 12:12:20;;;;;;;9.10;5.73;;;29.20;99.90;;;;;;4993813;28;20393;-62
2022/05/17 12:14:51;;;;;;;7.40;5.25;;;29.20;99.90;;;;;;4989019;28;20443;-62
2022/05/17 12:17:30;;;;;;;8.70;6.20;;;28.90;99.90;;;;;;4988689;28;20387;-62
2022/05/17 12:20:10;;;;;;;8.60;4.80;;;28.50;99.90;;;;;;4990419;28;20383;-62
2022/05/17 12:22:52;;;;;;;10.90;5.50;;;28.70;99.90;;;;;;4989816;28;20405;-63
2022/05/17 12:25:44;;;;;;;9.05;4.97;;;28.90;99.90;;;;;;4989653;28;20399;-62
2022/05/17 12:28:20;;;;;;;8.80;4.53;;;29.20;99.90;;;;;;4988329;28;20406;-62
2022/05/17 12:31:02;;;;;;;8.02;4.55;;;29.60;99.90;;;;;;4989930;28;20421;-62
2022/05/17 12:33:36;;;;;;;8.27;4.10;;;29.50;99.90;;;;;;4991556;28;20387;-63
2022/05/17 12:36:23;;;;;;;8.00;4.57;;;29.30;99.90;;;;;;4989343;28;20469;-63
2022/05/17 12:44:43;;;;;;;6.70;3.72;;;29.20;99.90;;;;;;4975277;28;20400;-63
2022/05/17 12:47:15;;;;;;;7.00;4.70;;;29.40;99.90;;;;;;4989093;28;20406;-63
2022/05/17 12:49:42;;;;;;;7.45;4.20;;;29.20;99.90;;;;;;4987260;28;21217;-63
2022/05/17 12:52:17;;;;;;;7.00;4.72;;;29.10;99.90;;;;;;4988033;28;20394;-62
2022/05/17 12:54:43;;;;;;;6.03;4.35;;;28.90;99.90;;;;;;4992901;28;20971;-62
2022/05/17 12:57:21;;;;;;;7.38;4.68;;;28.80;99.90;;;;;;4989565;28;20521;-62
2022/05/17 12:59:47;;;;;;;6.55;4.38;;;28.60;99.90;;;;;;4989192;28;21108;-65
2022/05/17 13:02:21;;;;;;;7.88;4.32;;;28.70;99.90;;;;;;4990730;28;20401;-62
2022/05/17 13:04:46;;;;;;;8.52;4.93;;;28.60;99.90;;;;;;4997377;28;20411;-65
2022/05/17 13:07:19;;;;;;;7.97;4.65;;;28.70;99.90;;;;;;4989796;28;21051;-65
2022/05/17 13:10:00;;;;;;;7.38;4.90;;;28.70;99.90;;;;;;4992495;28;20461;-65
2022/05/17 13:12:29;;;;;;;7.13;4.80;;;28.50;99.90;;;;;;4994972;28;20390;-67
2022/05/17 13:14:55;;;;;;;7.70;4.55;;;28.40;99.90;;;;;;4993299;28;20473;-64
2022/05/17 13:17:33;;;;;;;6.47;4.60;;;28.40;99.90;;;;;;4994152;28;20390;-64
2022/05/17 13:20:13;;;;;;;7.00;4.90;;;28.60;99.90;;;;;;4997407;28;20398;-63
2022/05/17 13:22:44;;;;;;;6.95;4.90;;;28.20;99.90;;;;;;4993299;28;20396;-64
2022/05/17 13:25:17;;;;;;;7.10;5.47;;;28.10;99.90;;;;;;4995423;28;20392;-64